Olney Springs, Colorado
Current Conditions -  °F | °C
As of 5:53 PM on Monday 24 Nov 2014 (Local Time) from KLHX Reporting Station
Clear Clear  
Wind Chill: 29°   Ceiling: Unl
Heat Index: 35°   Visibility: 10mi
Dew Point: 23°   Wind: 7mph
Humidity: 61%   Direction: 20°NNE
Pressure: 30.15"   Gusts: NA
Location:  38.17°N, 103.94°W
Report Text: KLHX 250053Z AUTO 02006KT 10SM CLR 02/M05 A3015 RMK AO2 SLP227 T00171050
Loading
Personal Weather Stations






























Interactive Weather Map New forecast layout! Learn more

10-Day Weather Forecast

Advertisements
Track Severe Weather on mobile